»·PEaware :: SWA1093 KLAS-KSUN

SWA1093 :: KLAS-KSUN

FLIGHT INFORMATION

Flight Status: Arrived
Operator:
Southwest Airlines
More flights by this operator :: More flights under this callsign
Pilot: Ryan B. (8502)
Aircraft: BOEING 737-300
(B733)
More flights by this aircraft type
Origin: KLAS McCarran Intl
United States
Destination: KSUN Friedman Meml
United States
More flights between these airports :: More routes between these airports
Route: +FFU170025 KSUN
File this flight plan on PilotEdge
Remarks:
Altitude:
(Current/Filed)
36,000ft
Speed:
(Current/Filed)
435kts
Departed: 22-Nov-17 04:55 PM
Arrived: 22-Nov-17 06:23 PM
Distance/Time
Traveled:
447nm/1:27
Distance/Time
To Go:
Arrived

Flight Plot

Page will automatically refresh every two minutes.

Flight plan parsing failed; only flown route is shown


Map Options




Map Legend


Flown Route
Filed Route
Departure Airport
Arrival Airport
Navaid (VOR, NDB)
Fix

Horizontal Profiles

Position Reports

Time Latitude Longitude Heading Altitude Ground
Speed
22-Nov-17 16:44 36.079941 -115.147090 57 2096ft 0kts
22-Nov-17 16:45 36.079941 -115.147090 57 2096ft 0kts
22-Nov-17 16:46 36.079941 -115.147090 57 2096ft 0kts
22-Nov-17 16:47 36.079941 -115.147090 57 2096ft 0kts
22-Nov-17 16:48 36.079941 -115.147090 57 2096ft 0kts
22-Nov-17 16:49 36.079941 -115.147090 57 2096ft 0kts
22-Nov-17 16:50 36.079941 -115.147090 57 2096ft 0kts
22-Nov-17 16:51 36.079941 -115.147090 57 2096ft 0kts
22-Nov-17 16:52 36.079941 -115.147090 57 2096ft 0kts
22-Nov-17 16:53 36.079828 -115.147306 57 2097ft 2kts
22-Nov-17 16:54 36.079919 -115.147894 156 2099ft 0kts
22-Nov-17 16:55 36.079925 -115.147897 156 2099ft 0kts
22-Nov-17 16:56 36.079925 -115.147897 156 2099ft 0kts
22-Nov-17 16:57 36.079886 -115.147877 157 2099ft 0kts
22-Nov-17 16:58 36.079587 -115.147732 158 2099ft 2kts
22-Nov-17 16:59 36.078434 -115.146384 90 2099ft 18kts
22-Nov-17 17:00 36.078241 -115.134544 89 2063ft 47kts
22-Nov-17 17:01 36.077589 -115.121595 136 2036ft 5kts
22-Nov-17 17:02 36.076952 -115.121322 177 2037ft 10kts
22-Nov-17 17:03 36.076387 -115.132683 270 2059ft 123kts
22-Nov-17 17:04 36.077399 -115.192894 270 3436ft 203kts
22-Nov-17 17:05 36.078978 -115.269521 296 5321ft 242kts
22-Nov-17 17:06 36.139892 -115.296963 12 7718ft 249kts
22-Nov-17 17:07 36.181932 -115.233257 69 10056ft 259kts
22-Nov-17 17:08 36.196923 -115.139771 88 11467ft 311kts
22-Nov-17 17:09 36.198063 -115.023533 88 12638ft 361kts
22-Nov-17 17:10 36.199418 -114.897545 87 14931ft 374kts
22-Nov-17 17:11 36.210157 -114.770044 54 16941ft 377kts
22-Nov-17 17:12 36.293592 -114.692661 34 18890ft 383kts
22-Nov-17 17:13 36.364955 -114.625344 34 19709ft 390kts
22-Nov-17 17:14 36.452001 -114.542921 34 21494ft 400kts
22-Nov-17 17:15 36.557392 -114.444926 28 23301ft 411kts
22-Nov-17 17:16 36.639025 -114.382263 27 24492ft 420kts
22-Nov-17 17:17 36.738445 -114.305122 27 25769ft 431kts
22-Nov-17 17:18 36.841141 -114.225307 27 26976ft 441kts
22-Nov-17 17:19 36.945925 -114.143650 27 28150ft 449kts
22-Nov-17 17:20 37.051416 -114.061168 27 29609ft 447kts
22-Nov-17 17:21 37.155793 -113.979435 28 30780ft 448kts
22-Nov-17 17:22 37.261034 -113.896658 27 31896ft 447kts
22-Nov-17 17:23 37.366108 -113.813694 27 32809ft 448kts
22-Nov-17 17:24 37.470987 -113.730606 27 33579ft 448kts
22-Nov-17 17:25 37.576441 -113.646778 27 34264ft 448kts
22-Nov-17 17:26 37.681296 -113.563143 27 34918ft 447kts
22-Nov-17 17:27 37.785926 -113.479408 27 35455ft 446kts
22-Nov-17 17:28 37.890050 -113.395794 27 35907ft 444kts
22-Nov-17 17:29 37.993461 -113.312279 28 36188ft 445kts
22-Nov-17 17:30 38.097692 -113.227907 28 36405ft 446kts
22-Nov-17 17:31 38.201503 -113.143890 28 36415ft 447kts
22-Nov-17 17:32 38.305585 -113.059164 28 36413ft 446kts
22-Nov-17 17:33 38.413293 -112.983449 17 36415ft 439kts
22-Nov-17 17:34 38.525143 -112.923744 18 36414ft 437kts
22-Nov-17 17:35 38.636557 -112.863051 18 36414ft 435kts
22-Nov-17 17:36 38.747078 -112.802643 18 36413ft 433kts
22-Nov-17 17:37 38.857627 -112.742016 18 36414ft 433kts
22-Nov-17 17:38 38.968105 -112.681226 17 36414ft 435kts
22-Nov-17 17:39 39.079647 -112.619641 17 36416ft 438kts
22-Nov-17 17:40 39.190504 -112.558340 17 36426ft 439kts
22-Nov-17 17:41 39.302170 -112.496269 17 36423ft 439kts
22-Nov-17 17:42 39.414086 -112.433835 17 36423ft 439kts
22-Nov-17 17:43 39.525557 -112.371426 17 36423ft 439kts
22-Nov-17 17:44 39.636441 -112.308867 18 36423ft 440kts
22-Nov-17 17:45 39.748129 -112.245856 18 36425ft 440kts
22-Nov-17 17:46 39.860559 -112.186923 0 36413ft 426kts
22-Nov-17 17:47 39.950249 -112.257461 315 36382ft 393kts
22-Nov-17 17:48 40.050518 -112.319058 333 36397ft 405kts
22-Nov-17 17:49 40.153846 -112.374530 333 36416ft 408kts
22-Nov-17 17:50 40.258387 -112.431134 333 36424ft 409kts
22-Nov-17 17:51 40.360229 -112.486512 333 36422ft 409kts
22-Nov-17 17:52 40.464969 -112.543661 333 36423ft 409kts
22-Nov-17 17:53 40.569779 -112.601041 333 36422ft 409kts
22-Nov-17 17:54 40.673704 -112.658162 332 36413ft 409kts
22-Nov-17 17:55 40.777966 -112.715869 332 36423ft 408kts
22-Nov-17 17:56 40.882646 -112.773770 332 36423ft 408kts
22-Nov-17 17:57 40.987048 -112.831707 332 36425ft 409kts
22-Nov-17 17:58 41.090840 -112.889495 330 36422ft 402kts
22-Nov-17 17:59 41.190313 -112.944906 329 36418ft 401kts
22-Nov-17 18:00 41.293320 -113.002624 329 36426ft 404kts
22-Nov-17 18:01 41.396630 -113.060740 329 36429ft 406kts
22-Nov-17 18:02 41.500106 -113.119148 329 36425ft 405kts
22-Nov-17 18:03 41.603922 -113.177959 329 36397ft 405kts
22-Nov-17 18:04 41.707431 -113.236802 329 36375ft 405kts
22-Nov-17 18:05 41.810842 -113.295793 329 36338ft 405kts
22-Nov-17 18:06 41.918119 -113.357215 330 31715ft 431kts
22-Nov-17 18:07 42.028259 -113.420470 331 27748ft 437kts
22-Nov-17 18:08 42.137904 -113.483536 332 24658ft 421kts
22-Nov-17 18:09 42.244968 -113.545537 332 24335ft 420kts
22-Nov-17 18:10 42.352709 -113.608186 332 24350ft 422kts
22-Nov-17 18:11 42.459211 -113.670388 331 23380ft 424kts
22-Nov-17 18:12 42.564338 -113.731971 331 21002ft 398kts
22-Nov-17 18:13 42.662101 -113.789428 332 18992ft 372kts
22-Nov-17 18:14 42.753937 -113.843577 332 16996ft 353kts
22-Nov-17 18:15 42.841785 -113.895533 332 14999ft 339kts
22-Nov-17 18:16 42.926549 -113.945815 333 13002ft 328kts
22-Nov-17 18:17 43.008479 -113.994554 333 11102ft 315kts
22-Nov-17 18:18 43.082754 -114.038846 332 10973ft 270kts
22-Nov-17 18:19 43.149981 -114.079071 332 10974ft 269kts
22-Nov-17 18:20 43.218701 -114.120247 332 11000ft 270kts
22-Nov-17 18:21 43.287513 -114.161593 332 10998ft 270kts
22-Nov-17 18:22 43.356131 -114.202934 332 10998ft 270kts
22-Nov-17 18:23 43.406485 -114.230577 337 10409ft 246kts
22-Nov-17 18:24 43.441568 -114.275319 245 9045ft 181kts
22-Nov-17 18:25 43.408604 -114.257935 61 6594ft 198kts
22-Nov-17 18:26 43.449396 -114.250484 347 5869ft 160kts
22-Nov-17 18:27 43.485318 -114.277851 322 5555ft 143kts
22-Nov-17 18:28 43.508732 -114.300363 324 5310ft 16kts
22-Nov-17 18:29 43.507917 -114.301050 143 5308ft 7kts

Navigation Log

Ident Type
Flight plan parsing failed, navigation log unavailable